createdAt,value
2018-07-14T00:02:20.208Z,24.70
2018-07-14T00:04:46.807Z,24.71
2018-07-14T00:07:13.509Z,24.68
2018-07-14T00:09:40.148Z,24.68
2018-07-14T00:12:06.806Z,24.73
2018-07-14T00:14:33.450Z,24.72
2018-07-14T00:17:00.097Z,24.72
2018-07-14T00:19:26.729Z,24.72
2018-07-14T00:21:53.369Z,24.74
2018-07-14T00:24:20.112Z,24.74
2018-07-14T00:26:46.717Z,24.73
2018-07-14T00:29:13.353Z,24.75
2018-07-14T00:31:39.988Z,24.73
2018-07-14T00:34:06.632Z,24.75
2018-07-14T00:36:33.278Z,24.74
2018-07-14T00:38:59.913Z,24.75
2018-07-14T00:41:26.558Z,24.73
2018-07-14T00:43:53.190Z,24.76
2018-07-14T00:46:19.864Z,24.70
2018-07-14T00:48:46.466Z,24.76
2018-07-14T00:51:13.115Z,24.74
2018-07-14T00:53:39.748Z,24.72
2018-07-14T00:56:06.465Z,24.77
2018-07-14T00:58:33.238Z,24.74
2018-07-14T01:00:59.883Z,24.75
2018-07-14T01:03:26.516Z,24.74
2018-07-14T01:05:53.153Z,24.76
2018-07-14T01:08:19.793Z,24.77
2018-07-14T01:10:46.491Z,24.75
2018-07-14T01:13:13.132Z,24.76
2018-07-14T01:15:39.777Z,24.80
2018-07-14T01:18:06.423Z,24.79
2018-07-14T01:20:33.063Z,24.79
2018-07-14T01:22:59.717Z,24.75
2018-07-14T01:25:26.354Z,24.75
2018-07-14T01:27:52.986Z,24.78
2018-07-14T01:30:19.629Z,24.77
2018-07-14T01:32:46.267Z,24.80
2018-07-14T01:35:12.916Z,24.76
2018-07-14T01:37:39.549Z,24.78
2018-07-14T01:40:06.193Z,24.77
2018-07-14T01:42:32.952Z,24.80
2018-07-14T01:44:59.590Z,24.83
2018-07-14T01:47:26.233Z,24.81
2018-07-14T01:49:52.872Z,24.81
2018-07-14T01:52:19.507Z,24.82
2018-07-14T01:54:46.162Z,24.82
2018-07-14T01:57:12.794Z,24.82
2018-07-14T01:59:39.436Z,24.80
2018-07-14T02:02:06.064Z,24.80
2018-07-14T02:04:32.758Z,24.78
2018-07-14T02:06:59.409Z,24.82
2018-07-14T02:09:26.082Z,24.80
2018-07-14T02:11:52.726Z,24.80
2018-07-14T02:14:19.377Z,24.78
2018-07-14T02:16:46.027Z,24.79
2018-07-14T02:19:12.655Z,24.82
2018-07-14T02:21:39.294Z,24.81
2018-07-14T02:24:05.936Z,24.82
2018-07-14T02:26:32.569Z,24.81
2018-07-14T02:28:59.223Z,24.83
2018-07-14T02:31:25.908Z,24.81
2018-07-14T02:33:52.544Z,24.81
2018-07-14T02:36:19.192Z,24.83
2018-07-14T02:38:45.835Z,24.81
2018-07-14T02:41:12.498Z,24.81
2018-07-14T02:43:39.138Z,24.79
2018-07-14T02:46:05.842Z,24.83
2018-07-14T02:48:32.472Z,24.72
2018-07-14T02:50:59.108Z,24.81
2018-07-14T02:55:52.386Z,24.81
2018-07-14T02:58:19.025Z,24.81
2018-07-14T03:00:45.658Z,24.83
2018-07-14T03:03:12.308Z,24.78
2018-07-14T03:05:38.948Z,24.78
2018-07-14T03:08:05.600Z,24.79
2018-07-14T03:10:32.250Z,24.81
2018-07-14T03:12:58.917Z,24.79
2018-07-14T03:15:25.528Z,24.79
2018-07-14T03:17:52.172Z,24.81
2018-07-14T03:20:18.804Z,24.80
2018-07-14T03:22:45.500Z,24.76
2018-07-14T03:25:12.140Z,24.78
2018-07-14T03:27:38.961Z,24.81
2018-07-14T03:30:05.469Z,24.81
2018-07-14T03:32:32.125Z,24.80
2018-07-14T03:34:58.761Z,24.81
2018-07-14T03:37:25.393Z,24.81
2018-07-14T03:39:52.028Z,24.80
2018-07-14T03:42:18.671Z,24.84
2018-07-14T03:44:45.308Z,24.82
2018-07-14T03:47:11.946Z,24.85
2018-07-14T03:49:38.583Z,24.86
2018-07-14T03:52:05.238Z,24.89
2018-07-14T03:54:31.935Z,24.87
2018-07-14T03:56:58.622Z,24.84
2018-07-14T03:59:25.216Z,24.66
2018-07-14T04:01:51.868Z,24.47
2018-07-14T04:04:18.490Z,24.38
2018-07-14T04:06:45.139Z,24.46
2018-07-14T04:09:11.771Z,24.35
2018-07-14T04:11:38.410Z,24.29
2018-07-14T04:14:05.067Z,24.42
2018-07-14T04:16:31.704Z,24.39
2018-07-14T04:18:58.345Z,24.40
2018-07-14T04:21:25.028Z,24.41
2018-07-14T04:23:51.655Z,24.36
2018-07-14T04:26:18.305Z,24.36
2018-07-14T04:28:44.954Z,24.24
2018-07-14T04:31:11.595Z,24.22
2018-07-14T04:33:38.250Z,24.14
2018-07-14T04:36:04.941Z,24.11
2018-07-14T04:38:31.596Z,24.11
2018-07-14T04:40:58.233Z,24.09
2018-07-14T04:43:24.884Z,24.03
2018-07-14T04:45:51.516Z,24.13
2018-07-14T04:48:18.176Z,24.12
2018-07-14T04:50:44.850Z,24.23
2018-07-14T04:53:11.556Z,24.18
2018-07-14T04:55:38.131Z,24.30
2018-07-14T04:58:04.771Z,24.27
2018-07-14T05:00:31.441Z,24.36
2018-07-14T05:02:58.048Z,24.36
2018-07-14T05:05:24.746Z,24.45
2018-07-14T05:07:51.382Z,24.39
2018-07-14T05:10:18.023Z,24.49
2018-07-14T05:12:44.711Z,24.55
2018-07-14T05:15:11.340Z,24.65
2018-07-14T05:17:37.988Z,24.62
2018-07-14T05:20:04.619Z,24.74
2018-07-14T05:22:31.264Z,24.78
2018-07-14T05:24:57.914Z,24.86
2018-07-14T05:27:24.556Z,24.89
2018-07-14T05:29:51.189Z,24.97
2018-07-14T05:32:17.844Z,25.01
2018-07-14T05:34:44.487Z,25.07
2018-07-14T05:37:11.162Z,25.20
2018-07-14T05:39:37.798Z,25.17
2018-07-14T05:42:04.485Z,25.33
2018-07-14T05:44:31.179Z,25.37
2018-07-14T05:46:57.838Z,25.34
2018-07-14T05:49:24.465Z,25.46
2018-07-14T05:51:51.117Z,25.57
2018-07-14T05:54:17.795Z,25.61
2018-07-14T05:56:44.398Z,25.67
2018-07-14T05:59:11.091Z,25.73
2018-07-14T06:01:37.733Z,25.78
2018-07-14T06:04:04.424Z,25.76
2018-07-14T06:06:31.063Z,25.80
2018-07-14T06:08:57.744Z,25.87
2018-07-14T06:11:24.382Z,25.92
2018-07-14T06:13:51.074Z,25.89
2018-07-14T06:16:17.718Z,25.89
2018-07-14T06:18:44.385Z,25.69
2018-07-14T06:21:11.065Z,25.52
2018-07-14T06:23:37.719Z,25.45
2018-07-14T06:26:04.346Z,25.52
2018-07-14T06:28:31.032Z,25.62
2018-07-14T06:30:57.669Z,25.75
2018-07-14T06:33:24.383Z,25.92
2018-07-14T06:35:51.038Z,25.90
2018-07-14T06:38:17.749Z,25.69
2018-07-14T06:40:44.383Z,25.62
2018-07-14T06:43:11.138Z,25.54
2018-07-14T06:45:38.852Z,25.51
2018-07-14T06:48:05.539Z,25.59
2018-07-14T06:50:32.194Z,25.59
2018-07-14T06:52:58.890Z,25.56
2018-07-14T06:55:25.527Z,25.44
2018-07-14T06:57:52.160Z,25.56
2018-07-14T07:00:18.815Z,25.77
2018-07-14T07:02:45.491Z,25.90
2018-07-14T07:05:12.129Z,25.75
2018-07-14T07:07:40.264Z,25.63
2018-07-14T07:10:05.456Z,25.55
2018-07-14T07:12:32.123Z,25.48
2018-07-14T07:14:58.880Z,25.51
2018-07-14T07:17:25.516Z,25.58
2018-07-14T07:19:52.150Z,25.72
2018-07-14T07:22:18.855Z,25.69
2018-07-14T07:24:45.489Z,25.74
2018-07-14T07:27:12.225Z,25.48
2018-07-14T07:29:38.904Z,25.28
2018-07-14T07:32:05.551Z,25.42
2018-07-14T07:34:32.281Z,25.49
2018-07-14T07:36:58.831Z,25.58
2018-07-14T07:39:25.458Z,25.64
2018-07-14T07:41:52.143Z,25.87
2018-07-14T07:44:19.647Z,25.90
2018-07-14T07:46:46.283Z,25.90
2018-07-14T07:49:12.923Z,25.95
2018-07-14T07:51:39.573Z,25.96
2018-07-14T07:54:06.217Z,25.84
2018-07-14T07:56:32.904Z,25.79
2018-07-14T07:58:59.550Z,25.73
2018-07-14T08:01:26.250Z,25.63
2018-07-14T08:03:53.021Z,25.56
2018-07-14T08:06:19.701Z,25.65
2018-07-14T08:08:46.404Z,25.76
2018-07-14T08:11:13.015Z,25.77
2018-07-14T08:13:39.793Z,25.73
2018-07-14T08:16:06.472Z,25.81
2018-07-14T08:18:33.102Z,25.87
2018-07-14T08:20:59.725Z,25.77
2018-07-14T08:23:26.368Z,25.82
2018-07-14T08:25:53.054Z,25.74
2018-07-14T08:28:19.741Z,25.78
2018-07-14T08:30:46.381Z,25.69
2018-07-14T08:33:13.013Z,25.82
2018-07-14T08:35:39.664Z,25.66
2018-07-14T08:38:06.455Z,25.81
2018-07-14T08:40:32.982Z,25.68
2018-07-14T08:42:59.618Z,25.78
2018-07-14T08:45:26.285Z,25.64
2018-07-14T08:47:52.926Z,25.61
2018-07-14T08:50:19.566Z,25.57
2018-07-14T08:52:46.207Z,25.63
2018-07-14T08:55:12.926Z,25.49
2018-07-14T08:57:39.554Z,25.57
2018-07-14T09:00:06.196Z,25.44
2018-07-14T09:02:32.884Z,25.36
2018-07-14T09:04:59.522Z,25.39
2018-07-14T09:07:26.191Z,25.36
2018-07-14T09:09:52.792Z,25.42
2018-07-14T09:12:19.477Z,25.37
2018-07-14T09:14:46.110Z,25.35
2018-07-14T09:17:12.752Z,25.40
2018-07-14T09:19:39.433Z,25.28
2018-07-14T09:22:06.086Z,25.30
2018-07-14T09:24:32.730Z,25.33
2018-07-14T09:26:59.377Z,25.35
2018-07-14T09:29:26.021Z,25.36
2018-07-14T09:31:52.711Z,25.26
2018-07-14T09:34:19.351Z,25.24
2018-07-14T09:36:46.012Z,25.26
2018-07-14T09:39:12.642Z,25.16
2018-07-14T09:41:39.327Z,25.25
2018-07-14T09:44:06.079Z,25.17
2018-07-14T09:46:32.642Z,25.25
2018-07-14T09:48:59.303Z,25.32
2018-07-14T09:51:25.916Z,25.26
2018-07-14T09:53:52.581Z,25.32
2018-07-14T09:56:19.224Z,25.24
2018-07-14T09:58:45.894Z,25.27
2018-07-14T10:01:12.500Z,25.24
2018-07-14T10:03:39.149Z,25.22
2018-07-14T10:06:05.835Z,25.23
2018-07-14T10:08:32.515Z,25.20
2018-07-14T10:10:59.113Z,25.27
2018-07-14T10:13:25.798Z,25.15
2018-07-14T10:15:52.446Z,25.21
2018-07-14T10:18:19.081Z,25.12
2018-07-14T10:20:45.723Z,25.16
2018-07-14T10:23:12.351Z,25.15
2018-07-14T10:25:40.761Z,25.09
2018-07-14T10:28:07.325Z,25.22
2018-07-14T10:30:33.964Z,25.14
2018-07-14T10:33:00.612Z,25.12
2018-07-14T10:35:27.243Z,25.14
2018-07-14T10:37:53.889Z,25.05
2018-07-14T10:40:20.527Z,25.11
2018-07-14T10:42:47.210Z,25.06
2018-07-14T10:45:13.858Z,25.06
2018-07-14T10:47:40.500Z,25.06
2018-07-14T10:50:07.141Z,25.04
2018-07-14T10:52:33.821Z,25.08
2018-07-14T10:55:00.513Z,25.03
2018-07-14T10:57:27.137Z,25.06
2018-07-14T10:59:53.781Z,25.07
2018-07-14T11:02:20.426Z,24.97
2018-07-14T11:04:47.113Z,25.02
2018-07-14T11:07:13.752Z,25.08
2018-07-14T11:09:40.384Z,25.00
2018-07-14T11:12:07.059Z,25.06
2018-07-14T11:14:33.667Z,24.91
2018-07-14T11:17:00.346Z,24.96
2018-07-14T11:19:26.992Z,24.95
2018-07-14T11:21:53.671Z,24.96
2018-07-14T11:24:20.399Z,24.99
2018-07-14T11:26:47.003Z,24.96
2018-07-14T11:29:13.651Z,24.95
2018-07-14T11:31:40.296Z,24.94
2018-07-14T11:34:06.923Z,24.97
2018-07-14T11:36:33.637Z,24.98
2018-07-14T11:39:00.329Z,24.93
2018-07-14T11:41:27.014Z,24.98
2018-07-14T11:43:53.660Z,24.94
2018-07-14T11:46:20.349Z,24.94
2018-07-14T11:48:46.992Z,24.92
2018-07-14T11:51:13.635Z,24.90
2018-07-14T11:53:40.274Z,24.89
2018-07-14T11:56:06.924Z,24.94
2018-07-14T11:58:33.566Z,24.90
2018-07-14T12:01:00.211Z,24.97
2018-07-14T12:03:26.897Z,24.88
2018-07-14T12:05:53.502Z,24.93
2018-07-14T12:08:20.194Z,24.96
2018-07-14T12:10:46.831Z,24.89
2018-07-14T12:13:13.470Z,24.92
2018-07-14T12:15:40.138Z,24.86
2018-07-14T12:18:06.767Z,24.87
2018-07-14T12:20:33.461Z,24.88
2018-07-14T12:23:00.239Z,24.94
2018-07-14T12:25:26.875Z,24.90
2018-07-14T12:27:53.516Z,24.85
2018-07-14T12:30:20.273Z,24.94
2018-07-14T12:32:46.813Z,24.90
2018-07-14T12:35:13.467Z,24.92
2018-07-14T12:37:40.143Z,24.90
2018-07-14T12:40:06.838Z,24.87
2018-07-14T12:42:33.520Z,24.92
2018-07-14T12:45:00.147Z,24.86
2018-07-14T12:47:26.806Z,24.81
2018-07-14T12:49:53.494Z,24.82
2018-07-14T12:52:20.124Z,24.82
2018-07-14T12:54:46.760Z,24.72
2018-07-14T12:57:13.435Z,24.69
2018-07-14T12:59:40.073Z,24.80
2018-07-14T13:02:06.729Z,24.75
2018-07-14T13:04:33.438Z,24.82
2018-07-14T13:07:00.075Z,24.80
2018-07-14T13:09:26.708Z,24.78
2018-07-14T13:11:53.363Z,24.84
2018-07-14T13:14:19.994Z,24.79
2018-07-14T13:16:46.668Z,24.77
2018-07-14T13:19:13.349Z,24.81
2018-07-14T13:21:39.984Z,24.75
2018-07-14T13:24:06.674Z,24.76
2018-07-14T13:26:33.316Z,24.78
2018-07-14T13:28:59.954Z,24.80
2018-07-14T13:31:26.653Z,24.70
2018-07-14T13:33:53.286Z,24.75
2018-07-14T13:36:20.049Z,24.65
2018-07-14T13:38:51.614Z,24.66
2018-07-14T13:41:13.283Z,24.64
2018-07-14T13:43:39.896Z,24.66
2018-07-14T13:46:06.529Z,24.60
2018-07-14T13:48:33.240Z,24.54
2018-07-14T13:50:59.852Z,24.63
2018-07-14T13:53:26.494Z,24.55
2018-07-14T13:55:53.144Z,24.56
2018-07-14T13:58:19.846Z,24.55
2018-07-14T14:00:49.826Z,24.57
2018-07-14T14:03:16.463Z,24.50
2018-07-14T14:05:43.117Z,24.49
2018-07-14T14:08:09.747Z,24.56
2018-07-14T14:10:36.435Z,24.56
2018-07-14T14:13:03.110Z,24.51
2018-07-14T14:15:29.749Z,24.57
2018-07-14T14:17:56.448Z,24.56
2018-07-14T14:20:23.090Z,24.48
2018-07-14T14:22:49.727Z,24.53
2018-07-14T14:25:16.408Z,24.60
2018-07-14T14:27:43.049Z,24.54
2018-07-14T14:30:09.738Z,24.50
2018-07-14T14:32:36.426Z,24.56
2018-07-14T14:35:03.068Z,24.56
2018-07-14T14:37:29.751Z,24.50
2018-07-14T14:39:56.478Z,24.59
2018-07-14T14:42:23.076Z,24.53
2018-07-14T14:44:49.767Z,24.49
2018-07-14T14:47:16.404Z,24.55
2018-07-14T14:49:43.091Z,24.56
2018-07-14T14:52:09.733Z,24.51
2018-07-14T14:54:36.413Z,24.58
2018-07-14T14:57:03.092Z,24.52
2018-07-14T14:59:29.741Z,24.46
2018-07-14T15:01:56.402Z,24.53
2018-07-14T15:04:23.020Z,24.44
2018-07-14T15:06:49.763Z,24.53
2018-07-14T15:09:16.486Z,24.56
2018-07-14T15:11:43.054Z,24.49
2018-07-14T15:14:09.707Z,24.43
2018-07-14T15:16:36.440Z,24.53
2018-07-14T15:19:03.005Z,24.45
2018-07-14T15:21:29.688Z,24.47
2018-07-14T15:23:56.327Z,24.46
2018-07-14T15:26:22.970Z,24.45
2018-07-14T15:28:49.618Z,24.47
2018-07-14T15:31:16.254Z,24.25
2018-07-14T15:33:42.939Z,24.15
2018-07-14T15:36:09.577Z,24.27
2018-07-14T15:38:36.254Z,24.37
2018-07-14T15:41:02.892Z,24.36
2018-07-14T15:43:29.543Z,24.33
2018-07-14T15:45:56.228Z,24.37
2018-07-14T15:48:22.864Z,24.33
2018-07-14T15:50:49.508Z,24.41
2018-07-14T15:53:16.251Z,24.34
2018-07-14T15:55:42.855Z,24.31
2018-07-14T15:58:09.493Z,24.33
2018-07-14T16:00:36.183Z,24.31
2018-07-14T16:03:02.868Z,24.29
2018-07-14T16:05:32.587Z,24.30
2018-07-14T16:07:59.419Z,24.25
2018-07-14T16:10:25.984Z,24.25
2018-07-14T16:12:52.683Z,24.26
2018-07-14T16:15:19.317Z,24.21
2018-07-14T16:17:45.977Z,24.21
2018-07-14T16:20:12.645Z,24.14
2018-07-14T16:22:39.277Z,24.09
2018-07-14T16:25:05.962Z,24.18
2018-07-14T16:27:36.012Z,24.13
2018-07-14T16:30:02.699Z,24.19
2018-07-14T16:32:29.330Z,24.14
2018-07-14T16:34:56.019Z,24.14
2018-07-14T16:37:22.662Z,24.07
2018-07-14T16:39:49.301Z,24.03
2018-07-14T16:42:15.999Z,24.04
2018-07-14T16:44:42.635Z,23.99
2018-07-14T16:47:09.273Z,24.02
2018-07-14T16:49:36.007Z,24.02
2018-07-14T16:52:02.669Z,23.98
2018-07-14T16:54:29.353Z,23.95
2018-07-14T16:56:55.988Z,24.03
2018-07-14T16:59:22.671Z,23.96
2018-07-14T17:01:49.354Z,23.95
2018-07-14T17:04:15.995Z,24.00
2018-07-14T17:06:42.676Z,23.93
2018-07-14T17:09:09.350Z,23.92
2018-07-14T17:11:35.986Z,23.97
2018-07-14T17:14:02.776Z,23.93
2018-07-14T17:16:29.299Z,23.89
2018-07-14T17:18:56.012Z,23.84
2018-07-14T17:21:22.633Z,23.84
2018-07-14T17:23:49.241Z,23.81
2018-07-14T17:26:15.890Z,23.82
2018-07-14T17:28:42.621Z,23.83
2018-07-14T17:31:09.224Z,23.83
2018-07-14T17:33:35.858Z,23.80
2018-07-14T17:36:03.770Z,23.80
2018-07-14T17:38:29.186Z,23.81
2018-07-14T17:40:55.874Z,23.72
2018-07-14T17:43:22.559Z,23.71
2018-07-14T17:45:49.198Z,23.78
2018-07-14T17:48:15.855Z,23.69
2018-07-14T17:50:42.498Z,23.68
2018-07-14T17:53:09.145Z,23.70
2018-07-14T17:55:35.781Z,23.70
2018-07-14T17:58:02.417Z,23.63
2018-07-14T18:00:29.072Z,23.68
2018-07-14T18:02:55.714Z,23.65
2018-07-14T18:05:22.376Z,23.59
2018-07-14T18:07:49.000Z,23.56
2018-07-14T18:10:15.642Z,23.58
2018-07-14T18:12:43.653Z,23.55
2018-07-14T18:15:08.971Z,23.53
2018-07-14T18:17:35.575Z,23.50
2018-07-14T18:20:02.234Z,23.49
2018-07-14T18:22:28.895Z,23.48
2018-07-14T18:24:55.523Z,23.53
2018-07-14T18:27:22.161Z,23.43
2018-07-14T18:29:48.810Z,23.48
2018-07-14T18:32:15.447Z,23.49
2018-07-14T18:34:42.094Z,23.68
2018-07-14T18:37:08.739Z,23.80
2018-07-14T18:39:35.377Z,23.79
2018-07-14T18:42:02.012Z,23.95
2018-07-14T18:44:28.651Z,24.04
2018-07-14T18:46:55.309Z,24.08
2018-07-14T18:49:21.950Z,24.12
2018-07-14T18:51:48.602Z,24.16
2018-07-14T18:54:15.230Z,24.28
2018-07-14T18:56:41.882Z,24.32
2018-07-14T18:59:08.545Z,24.42
2018-07-14T19:01:35.147Z,24.48
2018-07-14T19:04:01.777Z,24.46
2018-07-14T19:06:28.460Z,24.44
2018-07-14T19:08:55.111Z,24.35
2018-07-14T19:11:21.707Z,24.46
2018-07-14T19:13:48.351Z,24.46
2018-07-14T19:16:15.014Z,24.52
2018-07-14T19:18:41.617Z,24.56
2018-07-14T19:21:08.282Z,24.57
2018-07-14T19:23:34.917Z,24.63
2018-07-14T19:26:01.676Z,24.59
2018-07-14T19:28:28.178Z,24.57
2018-07-14T19:30:54.826Z,24.63
2018-07-14T19:33:21.460Z,24.62
2018-07-14T19:35:48.127Z,24.65
2018-07-14T19:38:14.730Z,24.66
2018-07-14T19:40:41.374Z,24.66
2018-07-14T19:43:08.010Z,24.71
2018-07-14T19:45:34.668Z,24.69
2018-07-14T19:48:01.334Z,24.72
2018-07-14T19:50:27.952Z,24.70
2018-07-14T19:52:54.593Z,24.76
2018-07-14T19:55:21.239Z,24.76
2018-07-14T19:57:47.885Z,24.75
2018-07-14T20:00:14.519Z,24.77
2018-07-14T20:02:41.179Z,24.77
2018-07-14T20:05:07.817Z,24.81
2018-07-14T20:07:34.448Z,24.82
2018-07-14T20:10:01.102Z,24.83
2018-07-14T20:12:27.797Z,24.85
2018-07-14T20:14:54.434Z,24.74
2018-07-14T20:17:21.065Z,24.76
2018-07-14T20:19:47.719Z,24.79
2018-07-14T20:22:14.359Z,24.80
2018-07-14T20:24:41.004Z,24.84
2018-07-14T20:27:07.640Z,24.82
2018-07-14T20:29:34.301Z,24.83
2018-07-14T20:32:00.928Z,24.84
2018-07-14T20:34:27.573Z,24.88
2018-07-14T20:36:54.205Z,24.87
2018-07-14T20:39:20.840Z,24.84
2018-07-14T20:41:47.607Z,24.88
2018-07-14T20:44:14.129Z,24.91
2018-07-14T20:46:40.763Z,24.88
2018-07-14T20:49:07.426Z,24.89
2018-07-14T20:51:34.042Z,24.91
2018-07-14T20:54:00.713Z,24.89
2018-07-14T20:56:27.310Z,24.90
2018-07-14T20:58:53.995Z,24.92
2018-07-14T21:01:20.676Z,24.92
2018-07-14T21:03:47.315Z,24.93
2018-07-14T21:06:14.001Z,24.95
2018-07-14T21:08:40.629Z,24.91
2018-07-14T21:11:07.259Z,24.94
2018-07-14T21:13:33.896Z,24.92
2018-07-14T21:16:00.547Z,24.93
2018-07-14T21:18:27.189Z,24.94
2018-07-14T21:20:53.975Z,24.95
2018-07-14T21:23:20.475Z,24.92
2018-07-14T21:25:47.116Z,24.93
2018-07-14T21:28:13.743Z,24.95
2018-07-14T21:30:40.380Z,24.95
2018-07-14T21:33:07.038Z,24.94
2018-07-14T21:35:33.684Z,24.94
2018-07-14T21:38:00.331Z,24.74
2018-07-14T21:40:26.967Z,24.58
2018-07-14T21:42:53.613Z,24.31
2018-07-14T21:45:20.248Z,24.24
2018-07-14T21:47:46.889Z,24.09
2018-07-14T21:50:13.551Z,24.05
2018-07-14T21:52:40.208Z,23.98
2018-07-14T21:55:06.848Z,23.97
2018-07-14T21:57:33.485Z,23.90
2018-07-14T22:00:00.170Z,23.84
2018-07-14T22:02:26.847Z,23.76
2018-07-14T22:04:53.445Z,23.79
2018-07-14T22:07:20.167Z,23.75
2018-07-14T22:09:46.736Z,23.72
2018-07-14T22:12:13.425Z,23.70
2018-07-14T22:14:40.030Z,23.62
2018-07-14T22:17:06.660Z,23.67
2018-07-14T22:19:33.324Z,23.81
2018-07-14T22:21:59.962Z,23.89
2018-07-14T22:24:26.599Z,23.96
2018-07-14T22:26:53.265Z,24.10
2018-07-14T22:29:19.950Z,24.01
2018-07-14T22:31:46.559Z,23.87
2018-07-14T22:34:13.195Z,23.72
2018-07-14T22:36:39.841Z,23.66
2018-07-14T22:39:06.471Z,23.56
2018-07-14T22:41:33.115Z,23.50
2018-07-14T22:43:59.763Z,23.60
2018-07-14T22:46:26.408Z,23.68
2018-07-14T22:48:53.049Z,23.78
2018-07-14T22:51:19.698Z,23.90
2018-07-14T22:53:46.372Z,24.02
2018-07-14T22:56:13.001Z,24.12
2018-07-14T22:58:39.773Z,24.11
2018-07-14T23:01:06.392Z,24.22
2018-07-14T23:03:33.014Z,24.19
2018-07-14T23:05:59.657Z,24.20
2018-07-14T23:08:26.293Z,24.27
2018-07-14T23:10:52.939Z,24.25
2018-07-14T23:13:19.585Z,24.27
2018-07-14T23:15:46.226Z,24.28
2018-07-14T23:18:12.892Z,24.31
2018-07-14T23:20:39.533Z,24.35
2018-07-14T23:23:06.168Z,24.33
2018-07-14T23:25:32.809Z,24.36
2018-07-14T23:27:59.457Z,24.34
2018-07-14T23:30:26.366Z,24.37
2018-07-14T23:32:52.973Z,24.36
2018-07-14T23:35:19.617Z,24.42
2018-07-14T23:37:46.259Z,24.41
2018-07-14T23:40:12.916Z,24.42
2018-07-14T23:42:39.567Z,24.43
2018-07-14T23:45:06.250Z,24.41
2018-07-14T23:47:32.898Z,24.44
2018-07-14T23:49:59.571Z,24.45
2018-07-14T23:52:29.515Z,24.46
2018-07-14T23:54:56.149Z,24.47
2018-07-14T23:57:22.828Z,24.48
2018-07-14T23:59:49.465Z,24.47
